Time;durP1;ratioP1;P1;durP2;ratioP2;P2;SDS_P1;SDS_P2;PMS_P1;PMS_P2;Temp;Humidity;BMP_temperature;BMP_pressure;BME280_temperature;BME280_humidity;BME280_pressure;Samples;Min_cycle;Max_cycle;Signal;HPM_P1;HPM_P2
2023/08/08 00:00:13;;;;;;;7.05;2.35;;;10.70;97.60;;;;;;4920252;29;20028;-92
2023/08/08 00:03:10;;;;;;;4.47;2.20;;;10.70;98.00;;;;;;4919538;29;20159;-92
2023/08/08 00:12:18;;;;;;;4.18;2.03;;;10.60;97.40;;;;;;4872018;29;20040;-91
2023/08/08 00:14:59;;;;;;;5.50;2.15;;;10.80;98.00;;;;;;4902970;29;20115;-92
2023/08/08 00:17:55;;;;;;;4.13;2.28;;;10.90;98.00;;;;;;4916132;29;20028;-92
2023/08/08 00:20:53;;;;;;;5.10;1.90;;;11.00;98.00;;;;;;4896565;29;20024;-93
2023/08/08 00:23:26;;;;;;;3.42;1.77;;;11.20;98.00;;;;;;4921923;29;20032;-93
2023/08/08 00:33:15;;;;;;;5.50;2.00;;;12.20;98.00;;;;;;4830286;29;20041;-93
2023/08/08 00:43:13;;;;;;;5.20;1.83;;;12.70;97.70;;;;;;4862793;29;20049;-93
2023/08/08 03:49:13;;;;;;;4.45;1.80;;;13.70;93.00;;;;;;6220475;23;20084;-89
2023/08/08 03:59:07;;;;;;;4.05;1.75;;;13.80;93.10;;;;;;5923653;24;20108;-91
2023/08/08 04:02:24;;;;;;;6.00;1.83;;;13.60;93.70;;;;;;5906422;24;20013;-90
2023/08/08 04:05:35;;;;;;;4.07;1.70;;;13.50;93.70;;;;;;5956835;23;19998;-91
2023/08/08 04:08:34;;;;;;;4.95;1.83;;;13.50;93.50;;;;;;6075859;23;20006;-90
2023/08/08 04:11:11;;;;;;;4.75;1.80;;;13.60;93.40;;;;;;6074242;23;20006;-92
2023/08/08 04:13:51;;;;;;;3.40;1.60;;;13.60;93.80;;;;;;6074023;23;20030;-89
2023/08/08 04:16:28;;;;;;;5.22;1.70;;;13.60;93.60;;;;;;6190939;23;20012;-90
2023/08/08 04:19:18;;;;;;;4.13;1.67;;;13.50;94.00;;;;;;6217872;23;20274;-90
2023/08/08 04:21:54;;;;;;;5.22;1.92;;;13.60;93.00;;;;;;6195128;23;20088;-91
2023/08/08 04:24:28;;;;;;;3.15;1.50;;;13.70;92.80;;;;;;6218266;23;19996;-90
2023/08/08 04:26:53;;;;;;;;;;;13.80;91.90;;;;;;6218295;23;20235;-89
2023/08/08 04:29:26;;;;;;;6.55;2.63;;;13.90;91.80;;;;;;6217229;23;19907;-91
2023/08/08 04:34:48;;;;;;;3.75;1.55;;;13.90;91.70;;;;;;6219223;23;20423;-91
2023/08/08 04:37:22;;;;;;;4.80;1.57;;;13.80;91.80;;;;;;6216146;23;20005;-91
2023/08/08 04:39:50;;;;;;;5.17;2.00;;;13.80;92.00;;;;;;6217190;23;20317;-90
2023/08/08 04:42:18;;;;;;;3.67;1.60;;;13.80;92.50;;;;;;6217272;23;20028;-91
2023/08/08 04:44:48;;;;;;;3.88;1.75;;;13.80;92.10;;;;;;6217422;23;19996;-92
2023/08/08 04:47:37;;;;;;;6.15;1.77;;;13.90;91.60;;;;;;6216951;23;20008;-91
2023/08/08 04:54:05;;;;;;;5.13;1.77;;;14.00;91.40;;;;;;6098054;23;20060;-92
2023/08/08 04:57:35;;;;;;;4.97;1.60;;;14.10;91.20;;;;;;6098237;23;20066;-94
2023/08/08 05:03:56;;;;;;;3.73;1.63;;;14.20;90.80;;;;;;5983724;24;20022;-90
2023/08/08 05:06:35;;;;;;;5.30;1.90;;;14.20;90.90;;;;;;6004977;23;20239;-91
2023/08/08 05:09:16;;;;;;;;;;;;;;;;;;;;;
2023/08/08 05:11:48;;;;;;;4.45;1.75;;;14.10;91.20;;;;;;6186706;23;20080;-89
2023/08/08 05:14:14;;;;;;;4.10;1.70;;;14.10;90.90;;;;;;6217632;23;20001;-90
2023/08/08 05:16:45;;;;;;;5.80;1.75;;;14.10;91.00;;;;;;6217395;23;20305;-91
2023/08/08 05:19:10;;;;;;;4.70;1.85;;;14.10;91.30;;;;;;6217615;23;20004;-90
2023/08/08 05:21:43;;;;;;;8.13;1.88;;;14.10;91.30;;;;;;6216049;23;20008;-91
2023/08/08 05:24:09;;;;;;;5.43;2.05;;;14.10;91.60;;;;;;6218355;23;20370;-91
2023/08/08 05:26:35;;;;;;;4.82;1.52;;;14.10;91.50;;;;;;6216718;23;20003;-91
2023/08/08 05:29:00;;;;;;;3.53;1.52;;;14.10;92.20;;;;;;6217198;23;20059;-90
2023/08/08 05:31:26;;;;;;;4.35;2.10;;;14.10;91.80;;;;;;6217299;23;20007;-89
2023/08/08 05:33:52;;;;;;;5.07;1.65;;;14.10;91.30;;;;;;6216887;23;20091;-89
2023/08/08 05:36:17;;;;;;;3.92;1.60;;;14.20;91.40;;;;;;6217006;23;20071;-87
2023/08/08 05:38:43;;;;;;;3.58;1.60;;;14.20;91.10;;;;;;6218264;23;20001;-90
2023/08/08 05:41:08;;;;;;;3.67;1.73;;;14.20;91.10;;;;;;6218979;23;20330;-90
2023/08/08 05:43:36;;;;;;;3.75;1.85;;;14.30;91.10;;;;;;6215832;23;20424;-89
2023/08/08 05:46:02;;;;;;;5.50;1.90;;;14.40;90.80;;;;;;6215723;23;20000;-90
2023/08/08 05:48:28;;;;;;;5.60;1.95;;;14.40;91.50;;;;;;6217991;23;20308;-90
2023/08/08 05:50:53;;;;;;;4.22;1.70;;;14.40;91.00;;;;;;6216362;23;20317;-90
2023/08/08 05:53:19;;;;;;;6.18;1.83;;;14.40;90.60;;;;;;6218122;23;20004;-90
2023/08/08 05:55:45;;;;;;;4.22;1.73;;;14.60;90.60;;;;;;6216716;23;20310;-89
2023/08/08 05:58:13;;;;;;;5.30;1.75;;;14.60;90.40;;;;;;6217008;23;20055;-89
2023/08/08 06:00:40;;;;;;;6.47;1.90;;;14.70;89.90;;;;;;6218453;23;20012;-88
2023/08/08 06:03:06;;;;;;;3.83;1.55;;;14.90;89.80;;;;;;6217403;23;19997;-90
2023/08/08 06:05:32;;;;;;;4.13;1.90;;;15.00;89.00;;;;;;6215949;23;20270;-89
2023/08/08 06:07:57;;;;;;;5.68;1.83;;;15.00;89.40;;;;;;6217737;23;20008;-91
2023/08/08 06:10:25;;;;;;;3.17;1.58;;;15.00;89.40;;;;;;6219137;23;20001;-88
2023/08/08 06:12:50;;;;;;;4.45;1.88;;;14.90;89.60;;;;;;6219058;23;20011;-87
2023/08/08 06:15:16;;;;;;;4.13;1.77;;;14.90;89.30;;;;;;6219673;23;20004;-88
2023/08/08 06:17:42;;;;;;;3.50;1.75;;;15.00;89.10;;;;;;6219401;23;20007;-86
2023/08/08 06:20:09;;;;;;;7.07;2.00;;;15.00;88.90;;;;;;6220088;23;20033;-88
2023/08/08 06:22:34;;;;;;;4.38;1.52;;;15.00;89.00;;;;;;6220306;23;20001;-88
2023/08/08 06:25:00;;;;;;;4.78;1.70;;;15.10;89.00;;;;;;6220477;23;20258;-89
2023/08/08 06:27:26;;;;;;;4.70;1.90;;;15.10;89.40;;;;;;6220342;23;20265;-89
2023/08/08 06:29:51;;;;;;;5.88;1.65;;;15.20;88.90;;;;;;6219414;23;20032;-89
2023/08/08 06:32:17;;;;;;;4.53;1.60;;;15.30;89.30;;;;;;6219535;23;20440;-87
2023/08/08 06:34:43;;;;;;;4.50;1.60;;;15.30;88.60;;;;;;6219996;23;20008;-88
2023/08/08 06:37:08;;;;;;;4.50;1.50;;;15.30;89.00;;;;;;6217776;23;20255;-88
2023/08/08 06:39:34;;;;;;;3.95;1.63;;;15.30;88.40;;;;;;6220517;23;20019;-88
2023/08/08 06:42:00;;;;;;;5.43;1.80;;;15.40;89.00;;;;;;6218763;23;20000;-88
2023/08/08 06:44:26;;;;;;;4.32;1.50;;;15.50;89.30;;;;;;6220094;23;20004;-88
2023/08/08 06:46:52;;;;;;;3.70;1.60;;;15.60;88.10;;;;;;6219437;23;20031;-84
2023/08/08 06:49:18;;;;;;;3.80;1.33;;;15.70;87.30;;;;;;6217179;23;20290;-88
2023/08/08 06:51:43;;;;;;;6.53;1.70;;;15.60;88.20;;;;;;6217159;23;20243;-88
2023/08/08 06:54:09;;;;;;;3.95;1.70;;;15.70;88.20;;;;;;6218180;23;20020;-89
2023/08/08 06:56:34;;;;;;;4.85;1.50;;;15.90;88.00;;;;;;6218970;23;20008;-90
2023/08/08 06:59:00;;;;;;;4.38;1.80;;;15.80;87.70;;;;;;6218009;23;20027;-88
2023/08/08 07:01:25;;;;;;;4.43;1.85;;;15.80;87.50;;;;;;6218813;23;20050;-88
2023/08/08 07:03:51;;;;;;;4.30;1.58;;;15.90;87.80;;;;;;6219684;23;20083;-89
2023/08/08 07:06:18;;;;;;;4.78;1.60;;;16.00;87.30;;;;;;6213916;23;20009;-86
2023/08/08 07:08:43;;;;;;;5.38;1.77;;;16.20;87.20;;;;;;6219014;23;20350;-89
2023/08/08 07:11:09;;;;;;;4.97;1.75;;;16.40;87.20;;;;;;6220004;23;20039;-87
2023/08/08 07:13:35;;;;;;;4.10;1.50;;;16.40;85.90;;;;;;6219249;23;20059;-87
2023/08/08 07:16:00;;;;;;;4.13;1.65;;;16.40;86.00;;;;;;6219183;23;20004;-87
2023/08/08 07:18:26;;;;;;;4.40;1.67;;;16.50;86.60;;;;;;6216618;23;20096;-87
2023/08/08 07:20:52;;;;;;;6.53;2.38;;;16.50;86.00;;;;;;6217971;23;20046;-88
2023/08/08 07:23:18;;;;;;;4.10;1.58;;;16.60;86.20;;;;;;6219098;23;20005;-88
2023/08/08 07:25:45;;;;;;;5.53;1.40;;;16.90;86.10;;;;;;6218075;23;20011;-90
2023/08/08 07:28:11;;;;;;;4.72;1.40;;;17.30;85.10;;;;;;6219566;23;20386;-88
2023/08/08 07:30:36;;;;;;;3.95;1.70;;;17.50;83.40;;;;;;6219186;23;20008;-89
2023/08/08 07:33:02;;;;;;;3.13;1.60;;;17.30;83.80;;;;;;6218646;23;20327;-86
2023/08/08 07:35:28;;;;;;;5.13;1.80;;;17.20;84.30;;;;;;6215367;23;20013;-85
2023/08/08 07:37:53;;;;;;;5.43;1.80;;;16.80;84.30;;;;;;6218538;23;20008;-87
2023/08/08 07:40:20;;;;;;;3.30;1.50;;;16.60;85.10;;;;;;6216518;23;20012;-88
2023/08/08 07:42:48;;;;;;;4.90;1.65;;;16.70;85.70;;;;;;6217585;23;20004;-87
2023/08/08 07:45:14;;;;;;;10.82;1.77;;;16.70;85.50;;;;;;6219581;23;20084;-88
2023/08/08 07:47:39;;;;;;;3.50;1.65;;;16.80;86.00;;;;;;6219184;23;19997;-87
2023/08/08 07:50:08;;;;;;;3.80;1.58;;;17.20;85.00;;;;;;6217893;23;20011;-87
2023/08/08 07:52:34;;;;;;;4.20;1.63;;;17.60;83.60;;;;;;6217590;23;20005;-88
2023/08/08 07:55:00;;;;;;;3.58;1.55;;;18.20;82.50;;;;;;6215727;23;20362;-88
2023/08/08 07:57:27;;;;;;;3.95;1.90;;;18.60;80.80;;;;;;6218520;23;20047;-88
2023/08/08 07:59:52;;;;;;;3.50;1.67;;;19.20;79.90;;;;;;6218686;23;20385;-88
2023/08/08 08:02:18;;;;;;;9.07;1.80;;;19.90;78.50;;;;;;6218670;23;20005;-89
2023/08/08 08:04:44;;;;;;;5.95;1.92;;;20.30;76.70;;;;;;6219504;23;20034;-88
2023/08/08 08:07:09;;;;;;;5.90;1.90;;;20.50;77.10;;;;;;6217291;23;20053;-89
2023/08/08 08:09:35;;;;;;;5.07;1.77;;;21.20;76.10;;;;;;6217643;23;20014;-91
2023/08/08 08:12:04;;;;;;;4.50;1.67;;;21.50;75.20;;;;;;6218701;23;20434;-89
2023/08/08 08:14:29;;;;;;;7.45;1.98;;;21.60;74.50;;;;;;6218121;23;20001;-88
2023/08/08 08:16:55;;;;;;;6.65;2.05;;;21.30;74.20;;;;;;6218381;23;20313;-89
2023/08/08 08:19:21;;;;;;;6.88;2.38;;;20.50;74.30;;;;;;6218131;23;20004;-89
2023/08/08 08:21:46;;;;;;;5.68;2.03;;;19.60;76.90;;;;;;6217489;23;20386;-89
2023/08/08 08:24:12;;;;;;;5.55;2.00;;;19.20;78.00;;;;;;6218278;23;20008;-88
2023/08/08 08:26:38;;;;;;;9.38;1.90;;;19.00;78.80;;;;;;6217455;23;20008;-86
2023/08/08 08:29:07;;;;;;;4.38;1.83;;;19.00;78.90;;;;;;6217929;23;20004;-87
2023/08/08 08:31:32;;;;;;;5.78;1.90;;;18.90;78.40;;;;;;6218894;23;20007;-88
2023/08/08 08:33:58;;;;;;;4.65;1.98;;;18.70;79.50;;;;;;6218621;23;20036;-88
2023/08/08 08:36:25;;;;;;;4.22;1.90;;;18.60;80.50;;;;;;6215138;23;20008;-87
2023/08/08 08:38:51;;;;;;;4.93;1.90;;;18.90;79.90;;;;;;6217084;23;20009;-87
2023/08/08 08:41:19;;;;;;;4.40;1.90;;;19.10;79.50;;;;;;6216587;23;20465;-87
2023/08/08 08:43:47;;;;;;;6.18;1.90;;;19.70;79.10;;;;;;6218118;23;20000;-88
2023/08/08 08:46:15;;;;;;;6.97;2.17;;;19.90;77.30;;;;;;6217649;23;20062;-88
2023/08/08 08:48:42;;;;;;;4.70;1.98;;;19.30;77.20;;;;;;6218576;23;19997;-87
2023/08/08 08:51:08;;;;;;;5.00;1.90;;;18.50;78.10;;;;;;6215522;23;20027;-89
2023/08/08 08:53:39;;;;;;;5.03;2.13;;;18.60;79.30;;;;;;6217142;23;20009;-86
2023/08/08 08:56:06;;;;;;;5.97;1.80;;;18.90;78.20;;;;;;6216596;23;20455;-89
2023/08/08 08:58:31;;;;;;;5.88;1.58;;;19.80;77.40;;;;;;6216872;23;20005;-88
2023/08/08 09:00:58;;;;;;;6.05;2.00;;;20.10;76.50;;;;;;6217809;23;20004;-88
2023/08/08 09:03:24;;;;;;;5.60;1.83;;;19.60;77.00;;;;;;6217616;23;20262;-88
2023/08/08 09:05:54;;;;;;;7.80;2.00;;;19.20;75.90;;;;;;6215298;23;20313;-88
2023/08/08 09:08:23;;;;;;;5.95;1.90;;;19.00;78.10;;;;;;6215777;23;20098;-89
2023/08/08 09:10:50;;;;;;;4.38;1.88;;;19.50;77.80;;;;;;6214749;23;20018;-88
2023/08/08 09:13:16;;;;;;;4.63;1.75;;;19.90;75.10;;;;;;6216000;23;20392;-87
2023/08/08 09:15:42;;;;;;;4.25;1.60;;;20.40;74.10;;;;;;6215547;23;20108;-88
2023/08/08 09:18:08;;;;;;;4.78;1.85;;;20.50;74.00;;;;;;6217542;23;20270;-89
2023/08/08 09:20:34;;;;;;;4.80;1.77;;;20.80;73.80;;;;;;6217535;23;20016;-89
2023/08/08 09:23:00;;;;;;;7.45;1.80;;;20.90;72.70;;;;;;6216050;23;20021;-89
2023/08/08 09:25:26;;;;;;;6.13;1.92;;;21.50;72.00;;;;;;6216388;23;20104;-90
2023/08/08 09:28:20;;;;;;;6.57;1.80;;;21.60;72.60;;;;;;6216314;23;20001;-91
2023/08/08 09:30:50;;;;;;;4.95;1.60;;;22.00;71.30;;;;;;6217794;23;20000;-92
2023/08/08 09:33:19;;;;;;;3.80;1.80;;;21.20;71.60;;;;;;6217848;23;20012;-90
2023/08/08 09:35:45;;;;;;;4.60;2.00;;;21.10;72.70;;;;;;6215211;23;20009;-91
2023/08/08 09:38:11;;;;;;;5.13;1.80;;;21.00;72.70;;;;;;6214988;23;20334;-92
2023/08/08 09:40:37;;;;;;;4.15;1.70;;;20.70;72.90;;;;;;6215820;23;20008;-91
2023/08/08 09:43:03;;;;;;;4.93;1.60;;;21.00;72.00;;;;;;6220596;23;20259;-90
2023/08/08 09:45:47;;;;;;;4.18;1.75;;;21.10;73.30;;;;;;6220058;23;20076;-91
2023/08/08 09:48:15;;;;;;;5.55;2.00;;;21.10;71.70;;;;;;6219221;23;19993;-86
2023/08/08 09:50:42;;;;;;;5.78;1.70;;;21.10;73.20;;;;;;6217133;23;20058;-88
2023/08/08 09:53:08;;;;;;;6.28;1.88;;;21.20;72.80;;;;;;6219767;23;20390;-90
2023/08/08 09:55:35;;;;;;;5.95;2.25;;;21.60;72.50;;;;;;6219238;23;20004;-89
2023/08/08 09:58:02;;;;;;;6.55;1.90;;;21.60;71.40;;;;;;6219864;23;20004;-89
2023/08/08 10:00:30;;;;;;;4.15;1.83;;;21.30;71.00;;;;;;6220465;23;20415;-89
2023/08/08 10:02:56;;;;;;;4.45;1.80;;;21.30;71.10;;;;;;6220702;23;20062;-88
2023/08/08 10:05:23;;;;;;;4.05;1.70;;;20.80;71.90;;;;;;6218542;23;20071;-88
2023/08/08 10:07:49;;;;;;;5.65;1.70;;;20.00;73.90;;;;;;6220756;23;20007;-89
2023/08/08 10:10:18;;;;;;;4.03;1.58;;;20.70;74.60;;;;;;6219037;23;20008;-89
2023/08/08 10:12:44;;;;;;;4.30;1.65;;;21.90;71.90;;;;;;6218693;23;20084;-89
2023/08/08 10:15:11;;;;;;;6.35;1.80;;;22.40;69.80;;;;;;6220664;23;20028;-89
2023/08/08 10:17:41;;;;;;;3.30;1.52;;;21.80;69.10;;;;;;6220751;23;20005;-89
2023/08/08 10:20:12;;;;;;;4.40;1.45;;;21.80;70.50;;;;;;6219613;23;20262;-88
2023/08/08 10:22:46;;;;;;;3.60;1.52;;;21.80;70.70;;;;;;6219443;23;20123;-90
2023/08/08 10:25:22;;;;;;;;;;;21.80;71.00;;;;;;6220101;23;20008;-90
2023/08/08 10:27:47;;;;;;;4.95;1.60;;;22.00;69.90;;;;;;6220306;23;19908;-89
2023/08/08 10:30:14;;;;;;;6.80;1.50;;;22.60;69.30;;;;;;6219277;23;20083;-88
2023/08/08 10:32:46;;;;;;;4.25;1.50;;;23.10;68.20;;;;;;6219162;23;20019;-86
2023/08/08 10:35:12;;;;;;;5.95;1.60;;;22.70;67.20;;;;;;6217361;23;20001;-87
2023/08/08 10:37:39;;;;;;;5.57;1.50;;;22.90;68.50;;;;;;6220062;23;20087;-85
2023/08/08 10:40:06;;;;;;;3.65;1.35;;;22.80;67.10;;;;;;6219591;23;20055;-87
2023/08/08 10:42:40;;;;;;;5.25;1.70;;;22.40;69.20;;;;;;6220441;23;20051;-86
2023/08/08 10:45:10;;;;;;;4.22;1.83;;;22.10;69.70;;;;;;6219186;23;20028;-86
2023/08/08 10:47:36;;;;;;;4.45;1.45;;;22.40;68.40;;;;;;6220542;23;20036;-89
2023/08/08 10:50:13;;;;;;;5.82;1.70;;;22.80;67.60;;;;;;6218164;23;20424;-86
2023/08/08 10:52:59;;;;;;;4.35;1.77;;;22.40;67.20;;;;;;6218075;23;20013;-87
2023/08/08 10:55:26;;;;;;;2.90;1.38;;;22.00;66.60;;;;;;6219495;23;20004;-88
2023/08/08 10:58:10;;;;;;;4.03;1.85;;;22.10;68.40;;;;;;6219113;23;20059;-89
2023/08/08 11:00:39;;;;;;;3.75;1.60;;;22.40;66.70;;;;;;6218244;23;20019;-86
2023/08/08 11:03:05;;;;;;;5.05;1.70;;;21.80;68.10;;;;;;6219099;23;20039;-86
2023/08/08 11:05:33;;;;;;;5.05;1.75;;;21.80;69.20;;;;;;6216135;23;20005;-86
2023/08/08 11:08:00;;;;;;;5.13;1.60;;;21.80;69.20;;;;;;6217935;23;20016;-88
2023/08/08 11:10:32;;;;;;;3.28;1.35;;;22.40;68.00;;;;;;6219320;23;20385;-87
2023/08/08 11:13:03;;;;;;;3.10;1.55;;;22.70;66.40;;;;;;6218648;23;20005;-87
2023/08/08 11:15:32;;;;;;;4.82;1.67;;;22.30;66.60;;;;;;6218943;23;20008;-84
2023/08/08 11:17:59;;;;;;;4.07;1.48;;;23.00;65.90;;;;;;6217833;23;20008;-85
2023/08/08 11:20:29;;;;;;;4.63;1.90;;;23.00;63.20;;;;;;6217768;23;20737;-85
2023/08/08 11:22:56;;;;;;;4.50;1.50;;;22.60;64.50;;;;;;6216812;23;20270;-85
2023/08/08 11:25:22;;;;;;;4.55;1.50;;;22.90;64.30;;;;;;6217411;23;20405;-86
2023/08/08 11:27:52;;;;;;;5.65;1.75;;;22.50;68.00;;;;;;6219908;23;20306;-85
2023/08/08 11:30:18;;;;;;;4.55;1.75;;;22.50;66.30;;;;;;6219109;23;20008;-87
2023/08/08 11:32:48;;;;;;;5.00;1.75;;;22.20;66.10;;;;;;6218491;23;20016;-88
2023/08/08 11:35:22;;;;;;;4.93;1.58;;;21.90;67.90;;;;;;6217323;23;20001;-86
2023/08/08 11:37:48;;;;;;;;;;;21.80;67.80;;;;;;6219118;23;20366;-87
2023/08/08 11:40:15;;;;;;;3.90;1.60;;;21.60;68.70;;;;;;6219780;23;20225;-86
2023/08/08 11:42:41;;;;;;;4.18;1.60;;;22.00;67.70;;;;;;6219828;23;20418;-86
2023/08/08 11:45:09;;;;;;;3.65;1.58;;;22.60;67.40;;;;;;6219978;23;20001;-85
2023/08/08 11:47:36;;;;;;;4.28;1.70;;;23.30;65.80;;;;;;6218456;23;20056;-86
2023/08/08 11:50:03;;;;;;;4.97;1.90;;;23.40;63.90;;;;;;6219874;23;20374;-86
2023/08/08 11:52:30;;;;;;;4.35;1.70;;;22.80;63.30;;;;;;6217546;23;20016;-84
2023/08/08 11:54:57;;;;;;;3.60;1.70;;;21.70;65.00;;;;;;6217585;23;20004;-85
2023/08/08 11:57:23;;;;;;;4.47;2.00;;;21.90;66.80;;;;;;6218338;23;20333;-86
2023/08/08 11:59:49;;;;;;;5.18;1.85;;;21.60;65.90;;;;;;6218939;23;20062;-85
2023/08/08 12:02:15;;;;;;;5.00;1.88;;;21.50;68.40;;;;;;6219848;23;20076;-83
2023/08/08 12:04:45;;;;;;;4.93;1.83;;;22.10;67.40;;;;;;6217774;23;20005;-86
2023/08/08 12:07:11;;;;;;;4.95;1.90;;;22.50;68.00;;;;;;6217729;23;20361;-85
2023/08/08 12:09:37;;;;;;;3.33;1.65;;;23.20;65.30;;;;;;6218658;23;20012;-86
2023/08/08 12:12:04;;;;;;;6.30;2.00;;;22.50;63.50;;;;;;6218390;23;20028;-86
2023/08/08 12:14:30;;;;;;;4.60;1.80;;;22.50;65.90;;;;;;6219430;23;20004;-84
2023/08/08 12:16:55;;;;;;;4.50;1.95;;;23.10;64.00;;;;;;6218829;23;20019;-86
2023/08/08 12:19:25;;;;;;;6.18;2.20;;;22.70;64.00;;;;;;6219551;23;20055;-85
2023/08/08 12:21:51;;;;;;;4.97;2.28;;;22.10;66.60;;;;;;6217423;23;20011;-86
2023/08/08 12:24:18;;;;;;;5.30;2.55;;;22.30;66.30;;;;;;6219110;23;20024;-85
2023/08/08 12:26:44;;;;;;;7.53;2.20;;;22.50;66.80;;;;;;6218660;23;20027;-86
2023/08/08 12:29:09;;;;;;;8.20;2.25;;;22.70;67.00;;;;;;6218348;23;20358;-86
2023/08/08 12:31:37;;;;;;;4.53;2.00;;;23.20;65.30;;;;;;6215467;23;20038;-86
2023/08/08 12:34:03;;;;;;;5.68;2.00;;;23.40;64.70;;;;;;6216473;23;20013;-85
2023/08/08 12:36:28;;;;;;;6.03;1.80;;;23.60;64.50;;;;;;6216306;23;20023;-86
2023/08/08 12:38:54;;;;;;;3.53;1.38;;;23.70;64.00;;;;;;6216823;23;20051;-88
2023/08/08 12:41:20;;;;;;;5.72;1.88;;;23.70;61.30;;;;;;6218580;23;20000;-85
2023/08/08 12:43:45;;;;;;;4.32;1.50;;;23.70;63.40;;;;;;6219538;23;19997;-85
2023/08/08 12:46:11;;;;;;;3.40;1.42;;;23.30;63.20;;;;;;6219290;23;20027;-85
2023/08/08 12:48:36;;;;;;;5.38;1.60;;;23.00;64.00;;;;;;6219357;23;20007;-85
2023/08/08 12:51:03;;;;;;;5.22;1.90;;;23.60;63.80;;;;;;6217914;23;20015;-85
2023/08/08 12:53:28;;;;;;;4.53;1.63;;;24.70;62.50;;;;;;6217414;23;20325;-85
2023/08/08 12:55:54;;;;;;;3.35;1.52;;;24.80;57.60;;;;;;6217956;23;20005;-85
2023/08/08 12:58:20;;;;;;;3.65;1.60;;;24.40;58.80;;;;;;6217752;23;20051;-86
2023/08/08 13:00:46;;;;;;;3.70;1.73;;;23.30;61.10;;;;;;6219144;23;20039;-86
2023/08/08 13:03:14;;;;;;;4.00;1.58;;;23.00;62.00;;;;;;6218096;23;20003;-85
2023/08/08 13:05:40;;;;;;;6.85;1.70;;;23.80;61.40;;;;;;6216307;23;20366;-84
2023/08/08 13:08:06;;;;;;;3.20;1.40;;;25.00;59.10;;;;;;6217890;23;20001;-84
2023/08/08 13:10:32;;;;;;;3.15;1.27;;;26.30;59.50;;;;;;6217780;23;20088;-85
2023/08/08 13:13:01;;;;;;;5.32;1.75;;;26.30;57.50;;;;;;6219223;23;20004;-83
2023/08/08 13:15:26;;;;;;;4.72;1.60;;;25.40;58.40;;;;;;6219248;23;20114;-85
2023/08/08 13:17:52;;;;;;;4.80;1.40;;;24.50;60.60;;;;;;6219125;23;20004;-85
2023/08/08 13:20:22;;;;;;;3.55;1.60;;;24.30;62.00;;;;;;6217162;23;20012;-87
2023/08/08 13:22:47;;;;;;;5.50;1.90;;;23.80;61.40;;;;;;6218560;23;19996;-85
2023/08/08 13:25:13;;;;;;;4.28;1.90;;;23.70;62.80;;;;;;6219112;23;20007;-85
2023/08/08 13:27:38;;;;;;;6.82;2.00;;;24.20;62.50;;;;;;6219275;23;20001;-84
2023/08/08 13:30:05;;;;;;;4.47;1.70;;;25.20;60.70;;;;;;6218998;23;20038;-85
2023/08/08 13:32:31;;;;;;;4.93;1.70;;;25.20;60.20;;;;;;6192844;23;20401;-88
2023/08/08 13:34:57;;;;;;;4.60;1.77;;;24.50;58.30;;;;;;6219133;23;20001;-85
2023/08/08 13:37:22;;;;;;;3.63;1.45;;;24.50;59.30;;;;;;6217144;23;20372;-84
2023/08/08 13:39:48;;;;;;;5.05;1.90;;;24.60;59.00;;;;;;6218910;23;20001;-84
2023/08/08 13:42:13;;;;;;;4.25;1.73;;;24.90;58.50;;;;;;6218993;23;20029;-85
2023/08/08 13:44:39;;;;;;;3.80;1.60;;;25.40;58.00;;;;;;6219117;23;20023;-85
2023/08/08 13:47:05;;;;;;;4.03;1.70;;;25.20;57.50;;;;;;6219091;23;20000;-85
2023/08/08 13:49:30;;;;;;;4.40;1.35;;;25.20;58.30;;;;;;6218117;23;20005;-84
2023/08/08 13:51:56;;;;;;;4.30;1.75;;;25.30;57.90;;;;;;6217092;23;20360;-86
2023/08/08 13:54:21;;;;;;;4.05;1.70;;;25.10;59.80;;;;;;6217026;23;20008;-88
2023/08/08 13:56:47;;;;;;;4.03;1.70;;;24.20;59.60;;;;;;6218688;23;20004;-85
2023/08/08 13:59:14;;;;;;;4.85;1.83;;;24.00;59.90;;;;;;6219016;23;20001;-85
2023/08/08 14:01:39;;;;;;;4.72;2.17;;;23.40;61.70;;;;;;6219051;23;20052;-84
2023/08/08 14:04:05;;;;;;;4.90;1.83;;;22.70;62.90;;;;;;6218947;23;20370;-86
2023/08/08 14:06:30;;;;;;;7.05;1.80;;;22.10;64.50;;;;;;6216251;23;20027;-87
2023/08/08 14:08:56;;;;;;;6.70;2.10;;;21.80;63.90;;;;;;6218392;23;20004;-87
2023/08/08 14:11:22;;;;;;;7.00;2.08;;;21.40;65.20;;;;;;6217312;23;20370;-87
2023/08/08 14:13:48;;;;;;;4.45;1.85;;;20.90;66.60;;;;;;6218985;23;20016;-85
2023/08/08 14:16:13;;;;;;;4.55;1.88;;;20.40;68.30;;;;;;6218540;23;20236;-84
2023/08/08 14:18:39;;;;;;;5.32;1.60;;;20.40;68.70;;;;;;6218865;23;20337;-84
2023/08/08 14:21:05;;;;;;;6.35;2.00;;;20.50;69.30;;;;;;6217433;23;20067;-83
2023/08/08 14:23:31;;;;;;;9.90;2.30;;;20.50;69.40;;;;;;6218786;23;20001;-84
2023/08/08 14:25:57;;;;;;;8.18;1.77;;;20.90;69.90;;;;;;6218817;23;19996;-83
2023/08/08 14:28:22;;;;;;;4.00;1.58;;;21.10;68.60;;;;;;6220323;23;20005;-84
2023/08/08 14:30:48;;;;;;;4.03;1.63;;;22.10;68.00;;;;;;6220061;23;20016;-83
2023/08/08 14:33:15;;;;;;;3.40;1.60;;;22.70;66.10;;;;;;6219408;23;20016;-83
2023/08/08 14:35:41;;;;;;;4.90;1.98;;;22.20;66.80;;;;;;6219024;23;20305;-84
2023/08/08 14:38:06;;;;;;;4.10;1.85;;;22.20;68.30;;;;;;6220318;23;20012;-83
2023/08/08 14:40:34;;;;;;;3.83;1.77;;;23.20;67.10;;;;;;6220347;23;20012;-82
2023/08/08 14:43:00;;;;;;;4.75;1.50;;;23.60;65.40;;;;;;6220450;23;20005;-85
2023/08/08 14:45:26;;;;;;;4.65;1.83;;;22.80;66.30;;;;;;6218925;23;19996;-83
2023/08/08 14:47:52;;;;;;;5.35;2.05;;;21.60;69.00;;;;;;6217943;23;20001;-83
2023/08/08 14:50:17;;;;;;;5.05;1.60;;;21.00;68.70;;;;;;6216429;23;20012;-84
2023/08/08 14:52:43;;;;;;;7.30;1.90;;;20.80;70.80;;;;;;6218655;23;20079;-83
2023/08/08 14:55:08;;;;;;;5.53;1.73;;;21.10;69.60;;;;;;6218824;23;20034;-85
2023/08/08 14:57:34;;;;;;;4.47;1.83;;;21.00;67.90;;;;;;6219377;23;20016;-84
2023/08/08 15:00:01;;;;;;;5.95;2.03;;;21.20;68.90;;;;;;6219071;23;20004;-84
2023/08/08 15:02:27;;;;;;;5.68;2.00;;;21.50;69.30;;;;;;6218789;23;20050;-84
2023/08/08 15:04:53;;;;;;;7.68;1.80;;;21.70;68.70;;;;;;6219132;23;20000;-84
2023/08/08 15:07:18;;;;;;;4.82;1.77;;;21.60;69.10;;;;;;6217324;23;20011;-84
2023/08/08 15:09:44;;;;;;;3.35;1.60;;;21.30;68.60;;;;;;6218386;23;20008;-84
2023/08/08 15:12:10;;;;;;;6.28;2.22;;;20.90;69.20;;;;;;6219958;23;20427;-84
2023/08/08 15:14:35;;;;;;;6.05;1.77;;;20.90;69.80;;;;;;6218870;23;20087;-84
2023/08/08 15:17:01;;;;;;;4.93;1.75;;;21.00;69.90;;;;;;6220317;23;20005;-85
2023/08/08 15:19:26;;;;;;;6.50;2.00;;;21.10;69.00;;;;;;6218459;23;20107;-84
2023/08/08 15:21:54;;;;;;;3.72;1.52;;;21.00;69.30;;;;;;6218429;23;20000;-85
2023/08/08 15:24:19;;;;;;;4.10;1.80;;;20.80;69.50;;;;;;6217769;23;20068;-85
2023/08/08 15:26:45;;;;;;;6.53;1.90;;;20.70;70.30;;;;;;6217568;23;20280;-84
2023/08/08 15:29:11;;;;;;;4.28;1.92;;;20.60;71.50;;;;;;6219808;23;20067;-85
2023/08/08 15:31:39;;;;;;;5.45;1.98;;;20.50;72.20;;;;;;6219857;22;20076;-85
2023/08/08 15:34:05;;;;;;;4.20;1.88;;;20.40;71.80;;;;;;6219812;23;20276;-84
2023/08/08 15:36:31;;;;;;;3.80;1.80;;;20.20;71.90;;;;;;6216486;23;20008;-84
2023/08/08 15:38:57;;;;;;;5.07;1.80;;;20.20;72.20;;;;;;6218269;23;20054;-86
2023/08/08 15:41:22;;;;;;;5.53;1.80;;;20.60;71.90;;;;;;6218507;23;20031;-84
2023/08/08 15:43:48;;;;;;;5.80;2.05;;;21.30;70.90;;;;;;6218308;23;20015;-84
2023/08/08 15:46:13;;;;;;;3.95;1.63;;;21.60;70.50;;;;;;6217890;23;20032;-84
2023/08/08 15:48:39;;;;;;;6.00;2.42;;;21.50;71.30;;;;;;6218587;23;20001;-86
2023/08/08 15:51:05;;;;;;;5.30;2.03;;;21.10;71.80;;;;;;6216202;23;20362;-84
2023/08/08 15:53:33;;;;;;;5.93;1.98;;;20.50;72.90;;;;;;6219233;23;20031;-83
2023/08/08 15:55:59;;;;;;;6.68;1.95;;;20.00;73.30;;;;;;6218875;23;20047;-85
2023/08/08 15:58:26;;;;;;;5.35;1.95;;;19.90;74.50;;;;;;6220116;23;20285;-83
2023/08/08 16:00:51;;;;;;;5.15;1.90;;;19.70;74.30;;;;;;6219003;23;20008;-83
2023/08/08 16:03:17;;;;;;;4.85;1.98;;;19.50;75.10;;;;;;6219754;23;20005;-83
2023/08/08 16:05:43;;;;;;;4.63;1.70;;;19.50;75.00;;;;;;6217872;23;19997;-83
2023/08/08 16:08:12;;;;;;;5.72;1.90;;;19.40;74.80;;;;;;6219780;23;20000;-83
2023/08/08 16:10:37;;;;;;;6.25;2.35;;;19.50;74.90;;;;;;6219854;23;20008;-86
2023/08/08 16:13:03;;;;;;;4.50;1.98;;;19.50;75.00;;;;;;6218570;23;20127;-85
2023/08/08 16:15:28;;;;;;;4.43;1.70;;;19.90;74.70;;;;;;6219537;23;20001;-84
2023/08/08 16:17:54;;;;;;;5.75;1.85;;;20.50;73.70;;;;;;6219401;23;20015;-84
2023/08/08 16:20:20;;;;;;;5.15;2.30;;;20.60;72.70;;;;;;6216849;23;20008;-85
2023/08/08 16:22:45;;;;;;;4.07;1.50;;;21.00;71.70;;;;;;6220208;23;20326;-84
2023/08/08 16:25:11;;;;;;;4.22;1.80;;;22.20;69.60;;;;;;6219664;23;20004;-84
2023/08/08 16:27:36;;;;;;;4.07;1.70;;;22.60;67.80;;;;;;6219551;23;19997;-85
2023/08/08 16:30:02;;;;;;;5.63;1.58;;;22.70;67.70;;;;;;6219512;23;20380;-84
2023/08/08 16:32:29;;;;;;;4.82;1.60;;;22.50;68.40;;;;;;6218401;23;20095;-85
2023/08/08 16:34:55;;;;;;;5.95;1.90;;;22.10;68.80;;;;;;6219532;23;20004;-85